Time;durP1;ratioP1;P1;durP2;ratioP2;P2;SDS_P1;SDS_P2;PMS_P1;PMS_P2;Temp;Humidity;BMP_temperature;BMP_pressure;BME280_temperature;BME280_humidity;BME280_pressure;Samples;Min_cycle;Max_cycle;Signal;HPM_P1;HPM_P2
2021/09/14 00:00:07;;;;;;;12.60;7.70;;;;;;;15.33;77.93;98649.45;111772;1212;22460;-78
2021/09/14 00:02:58;;;;;;;11.70;8.20;;;;;;;15.34;77.99;98648.52;111922;1211;22441;-78
2021/09/14 00:05:25;;;;;;;13.90;9.00;;;;;;;15.35;78.29;98646.05;111962;1211;24076;-78
2021/09/14 00:08:06;;;;;;;11.90;7.90;;;;;;;15.39;78.36;98643.10;111908;1212;22809;-78
2021/09/14 00:10:33;;;;;;;12.80;8.60;;;;;;;15.40;78.21;98642.65;111915;1211;23307;-78
2021/09/14 00:13:14;;;;;;;11.60;9.20;;;;;;;15.43;78.25;98644.46;111928;1212;24396;-78
2021/09/14 00:15:41;;;;;;;17.50;11.30;;;;;;;15.42;78.17;98644.96;111878;1212;22475;-78
2021/09/14 00:18:07;;;;;;;14.10;10.80;;;;;;;15.41;78.09;98643.81;111983;1211;24048;-78
2021/09/14 00:20:34;;;;;;;16.30;10.90;;;;;;;15.40;78.06;98643.91;111866;1216;22728;-78
2021/09/14 00:23:03;;;;;;;14.30;9.50;;;;;;;15.40;78.24;98642.55;111745;1212;24228;-78
2021/09/14 00:25:31;;;;;;;17.00;11.00;;;;;;;15.40;78.28;98641.28;111793;1219;22463;-78
2021/09/14 00:27:59;;;;;;;15.00;9.90;;;;;;;15.39;78.03;98642.43;111825;1212;22463;-78
2021/09/14 00:30:26;;;;;;;15.10;9.90;;;;;;;15.39;78.21;98638.48;111755;1213;22605;-78
2021/09/14 00:32:53;;;;;;;14.30;10.00;;;;;;;15.41;78.23;98639.48;111757;1212;26299;-77
2021/09/14 00:35:20;;;;;;;14.50;10.40;;;;;;;15.41;78.02;98636.29;111754;1219;24744;-78
2021/09/14 00:38:01;;;;;;;13.70;9.20;;;;;;;15.42;77.87;98641.06;111939;1212;22549;-78
2021/09/14 00:40:27;;;;;;;15.50;10.60;;;;;;;15.44;78.03;98640.19;111567;1219;22479;-78
2021/09/14 00:42:57;;;;;;;14.90;10.60;;;;;;;15.47;78.26;98642.83;111587;1213;22577;-78
2021/09/14 00:45:24;;;;;;;15.00;10.90;;;;;;;15.47;78.07;98640.75;111747;1215;24010;-78
2021/09/14 00:47:51;;;;;;;16.90;10.30;;;;;;;15.47;77.97;98640.95;111782;1212;23790;-78
2021/09/14 00:50:17;;;;;;;16.10;11.10;;;;;;;15.45;78.26;98641.77;111804;1212;25174;-78
2021/09/14 00:53:00;;;;;;;14.50;10.90;;;;;;;15.45;78.32;98637.45;111791;1212;22463;-78
2021/09/14 00:55:27;;;;;;;15.40;12.10;;;;;;;15.44;78.53;98639.70;111567;1206;22469;-78
2021/09/14 00:57:54;;;;;;;20.10;14.20;;;;;;;15.46;78.66;98641.41;111709;1212;22504;-78
2021/09/14 01:00:21;;;;;;;22.10;14.10;;;;;;;15.48;78.90;98640.25;111697;1212;22479;-78
2021/09/14 01:02:49;;;;;;;18.50;13.70;;;;;;;15.49;78.80;98638.82;111604;1205;25337;-78
2021/09/14 01:05:16;;;;;;;20.30;14.00;;;;;;;15.50;78.88;98635.88;111841;1212;23935;-78
2021/09/14 01:07:59;;;;;;;17.90;12.40;;;;;;;15.53;78.86;98636.36;111899;1212;25038;-78
2021/09/14 01:10:26;;;;;;;16.10;12.40;;;;;;;15.52;78.65;98635.92;111786;1212;22539;-77
2021/09/14 01:12:53;;;;;;;17.70;13.30;;;;;;;15.53;78.95;98635.60;111826;1212;26294;-78
2021/09/14 01:15:20;;;;;;;17.90;12.30;;;;;;;15.55;78.86;98635.59;111816;1212;22466;-78
2021/09/14 01:17:47;;;;;;;17.60;13.40;;;;;;;15.55;78.78;98630.04;111903;1205;22445;-78
2021/09/14 01:20:14;;;;;;;16.90;12.10;;;;;;;15.54;78.61;98627.57;111670;1205;22470;-78
2021/09/14 01:22:41;;;;;;;15.80;10.90;;;;;;;15.51;78.50;98624.92;111804;1212;22502;-78
2021/09/14 01:25:21;;;;;;;18.10;12.60;;;;;;;15.51;78.51;98626.25;111829;1210;22959;-78
2021/09/14 01:28:04;;;;;;;17.40;11.70;;;;;;;15.51;78.66;98627.14;111896;1212;25163;-78
2021/09/14 01:30:34;;;;;;;16.60;12.10;;;;;;;15.52;78.74;98628.84;111773;1212;22479;-78
2021/09/14 01:33:02;;;;;;;15.80;12.00;;;;;;;15.50;78.67;98628.23;111840;1212;24089;-78
2021/09/14 01:35:35;;;;;;;14.70;10.90;;;;;;;15.49;78.40;98633.17;111963;1212;24154;-78
2021/09/14 01:38:04;;;;;;;16.80;11.00;;;;;;;15.48;78.48;98638.38;111892;1211;25046;-78
2021/09/14 01:40:35;;;;;;;17.80;12.00;;;;;;;15.49;78.75;98637.95;111859;1212;24054;-78
2021/09/14 01:43:07;;;;;;;15.50;11.20;;;;;;;15.49;78.56;98640.69;111830;1211;25028;-78
2021/09/14 01:45:34;;;;;;;;;;;;;;;15.47;78.69;98640.52;111732;1213;23195;-78
2021/09/14 01:48:04;;;;;;;15.20;11.10;;;;;;;15.46;78.76;98643.54;111775;1212;22469;-78
2021/09/14 01:50:46;;;;;;;18.90;12.00;;;;;;;15.46;78.91;98647.16;111717;1215;22464;-78
2021/09/14 01:53:27;;;;;;;16.80;12.50;;;;;;;15.40;78.50;98646.55;111774;1219;24412;-78
2021/09/14 01:56:03;;;;;;;15.60;11.60;;;;;;;15.36;78.83;98649.95;111543;1215;22483;-78
2021/09/14 01:58:35;;;;;;;17.10;12.20;;;;;;;15.35;79.16;98648.85;111701;1212;24100;-78
2021/09/14 02:01:18;;;;;;;15.20;10.30;;;;;;;15.36;79.55;98650.23;111594;1214;22454;-78
2021/09/14 02:06:30;;;;;;;15.50;12.40;;;;;;;15.40;79.25;98647.54;111826;1206;24983;-78
2021/09/14 02:23:43;;;;;;;24.00;15.50;;;;;;;15.38;79.31;98650.29;111733;1212;24163;-77
2021/09/14 02:43:24;;;;;;;23.80;15.20;;;;;;;15.22;80.49;98645.08;111848;1211;25097;-79
2021/09/14 02:59:47;;;;;;;19.10;14.00;;;;;;;14.97;80.31;98646.50;111740;1212;22457;-78
2021/09/14 03:02:15;;;;;;;21.60;14.60;;;;;;;14.94;80.58;98643.98;111927;1212;24316;-79
2021/09/14 03:04:42;;;;;;;24.30;15.00;;;;;;;14.93;80.75;98646.55;111792;1219;22595;-78
2021/09/14 03:07:09;;;;;;;19.60;14.50;;;;;;;14.91;80.71;98640.65;111851;1212;24216;-78
2021/09/14 03:09:39;;;;;;;19.70;13.00;;;;;;;14.90;80.42;98640.00;111863;1211;25062;-79
2021/09/14 03:12:07;;;;;;;19.10;13.60;;;;;;;14.88;80.47;98638.35;111817;1206;22981;-78
2021/09/14 03:14:49;;;;;;;17.90;12.60;;;;;;;14.86;80.47;98636.52;111794;1212;25031;-77
2021/09/14 03:17:17;;;;;;;18.10;13.40;;;;;;;14.83;80.45;98632.41;111955;1211;23804;-77
2021/09/14 03:19:44;;;;;;;16.40;12.10;;;;;;;14.76;80.09;98636.66;111780;1212;22467;-77
2021/09/14 03:22:11;;;;;;;15.70;11.70;;;;;;;14.71;80.44;98637.19;111893;1212;24192;-77
2021/09/14 03:24:38;;;;;;;13.90;11.00;;;;;;;14.70;80.45;98635.71;111819;1206;25201;-77
2021/09/14 03:27:07;;;;;;;16.60;12.50;;;;;;;14.69;80.46;98634.23;112013;1212;22494;-77
2021/09/14 03:29:34;;;;;;;17.00;11.40;;;;;;;14.68;80.28;98633.61;111836;1211;25075;-77
2021/09/14 03:32:01;;;;;;;16.00;12.50;;;;;;;14.50;79.52;98635.36;111839;1212;24048;-78
2021/09/14 03:34:43;;;;;;;17.60;12.20;;;;;;;14.34;80.01;98635.11;111802;1212;22473;-78
2021/09/14 03:37:10;;;;;;;16.40;11.10;;;;;;;14.27;80.32;98634.73;111785;1212;22478;-78
2021/09/14 03:39:37;;;;;;;16.20;10.70;;;;;;;14.12;80.50;98634.33;111931;1206;23119;-78
2021/09/14 03:42:08;;;;;;;15.00;11.50;;;;;;;13.97;80.59;98633.55;111785;1211;24151;-78
2021/09/14 03:44:36;;;;;;;17.60;12.50;;;;;;;13.90;81.16;98636.02;111853;1212;22467;-78
2021/09/14 03:47:03;;;;;;;13.50;11.30;;;;;;;13.86;81.59;98634.96;112033;1206;23744;-78
2021/09/14 03:49:33;;;;;;;15.80;10.90;;;;;;;13.84;81.65;98636.48;111869;1212;22902;-79
2021/09/14 03:52:14;;;;;;;12.90;9.70;;;;;;;13.82;81.79;98643.57;111701;1212;23925;-78
2021/09/14 03:54:41;;;;;;;14.20;9.60;;;;;;;13.83;82.09;98645.77;111744;1214;24298;-79
2021/09/14 03:57:08;;;;;;;12.00;9.50;;;;;;;13.83;82.00;98646.21;111544;1214;24339;-78
2021/09/14 03:59:49;;;;;;;12.00;9.30;;;;;;;13.84;81.94;98647.48;111795;1214;22496;-78
2021/09/14 04:10:24;;;;;;;10.80;7.80;;;;;;;13.85;81.64;98643.38;111559;1215;25153;-78
2021/09/14 04:12:51;;;;;;;14.80;8.90;;;;;;;13.83;81.72;98644.75;111575;1215;22822;-79
2021/09/14 04:15:18;;;;;;;11.70;8.30;;;;;;;13.84;81.76;98647.86;111762;1212;22507;-78
2021/09/14 04:17:45;;;;;;;14.20;8.60;;;;;;;13.85;81.83;98650.61;111775;1220;22938;-79
2021/09/14 04:20:13;;;;;;;10.60;8.20;;;;;;;13.87;81.89;98652.92;111737;1220;25144;-79
2021/09/14 04:22:55;;;;;;;11.50;7.70;;;;;;;13.89;81.77;98654.46;111946;1212;23476;-78
2021/09/14 04:25:22;;;;;;;11.70;7.20;;;;;;;13.79;81.35;98658.44;111614;1220;23105;-79
2021/09/14 04:27:49;;;;;;;12.80;8.90;;;;;;;13.58;81.20;98657.55;111617;1221;24163;-79
2021/09/14 04:30:17;;;;;;;12.60;7.90;;;;;;;13.48;81.93;98653.30;111578;1212;25142;-79
2021/09/14 04:32:46;;;;;;;11.10;7.60;;;;;;;13.46;82.33;98654.21;111633;1215;24132;-79
2021/09/14 04:35:13;;;;;;;10.00;7.20;;;;;;;13.46;82.39;98651.20;111613;1220;22544;-79
2021/09/14 04:37:43;;;;;;;11.50;8.00;;;;;;;13.50;82.69;98657.04;111949;1213;22578;-78
2021/09/14 04:40:11;;;;;;;13.40;8.40;;;;;;;13.57;82.73;98662.19;111873;1212;22450;-79
2021/09/14 04:42:52;;;;;;;9.60;7.90;;;;;;;13.63;82.63;98658.30;111759;1212;24550;-78
2021/09/14 04:45:22;;;;;;;12.50;7.80;;;;;;;13.65;82.56;98661.72;111640;1213;22457;-78
2021/09/14 04:47:49;;;;;;;10.50;7.80;;;;;;;13.65;82.39;98667.02;111607;1215;22481;-78
2021/09/14 04:50:16;;;;;;;14.20;9.40;;;;;;;13.59;81.88;98675.73;111526;1212;24104;-78
2021/09/14 04:52:58;;;;;;;17.00;12.10;;;;;;;13.45;81.75;98672.53;111702;1213;23069;-78
2021/09/14 04:55:25;;;;;;;15.80;11.80;;;;;;;13.38;81.97;98672.89;111727;1213;25085;-79
2021/09/14 04:58:07;;;;;;;15.50;10.80;;;;;;;13.32;82.13;98675.34;111764;1212;25088;-78
2021/09/14 05:00:34;;;;;;;15.90;9.90;;;;;;;13.29;82.42;98676.66;111595;1215;25132;-78
2021/09/14 05:03:01;;;;;;;14.20;10.60;;;;;;;13.34;82.87;98676.84;111673;1212;22460;-78
2021/09/14 05:05:41;;;;;;;12.70;9.50;;;;;;;13.40;83.02;98674.39;111633;1213;22581;-78
2021/09/14 05:08:10;;;;;;;15.40;9.00;;;;;;;13.48;83.11;98679.72;111921;1213;25135;-79
2021/09/14 05:10:38;;;;;;;12.00;8.40;;;;;;;13.54;82.98;98678.19;111607;1213;24280;-79
2021/09/14 05:13:06;;;;;;;13.70;8.40;;;;;;;13.60;83.10;98681.21;111633;1213;24042;-79
2021/09/14 05:15:34;;;;;;;10.20;7.30;;;;;;;13.67;82.99;98681.55;111537;1215;24078;-79
2021/09/14 05:18:28;;;;;;;9.90;7.30;;;;;;;13.76;83.06;98681.14;111619;1215;22567;-79
2021/09/14 05:20:59;;;;;;;14.20;9.30;;;;;;;13.84;82.98;98683.50;111648;1215;22498;-79
2021/09/14 05:23:31;;;;;;;12.90;7.50;;;;;;;13.90;82.74;98684.98;111609;1213;22574;-79
2021/09/14 05:26:03;;;;;;;14.40;7.90;;;;;;;13.91;82.26;98690.08;111535;1214;25046;-78
2021/09/14 05:28:44;;;;;;;13.80;8.10;;;;;;;13.90;82.25;98690.52;111497;1213;25042;-79
2021/09/14 05:31:11;;;;;;;11.40;7.40;;;;;;;13.92;82.24;98695.23;111556;1221;22470;-78
2021/09/14 05:33:39;;;;;;;14.10;7.20;;;;;;;13.95;82.21;98695.91;111584;1214;22485;-78
2021/09/14 05:36:20;;;;;;;13.90;8.90;;;;;;;14.02;82.61;98693.30;111630;1219;23788;-78
2021/09/14 05:38:48;;;;;;;17.50;8.10;;;;;;;14.07;82.42;98693.33;111440;1213;22457;-78
2021/09/14 05:41:15;;;;;;;20.40;12.10;;;;;;;14.07;81.93;98697.48;111513;1214;24092;-78
2021/09/14 05:43:55;;;;;;;11.70;8.10;;;;;;;14.02;81.87;98701.28;111716;1212;25024;-78
2021/09/14 05:46:22;;;;;;;14.50;7.60;;;;;;;14.01;82.08;98696.68;111784;1212;25119;-78
2021/09/14 05:48:49;;;;;;;12.00;7.80;;;;;;;14.05;82.38;98698.02;111766;1212;22607;-78
2021/09/14 05:51:17;;;;;;;12.10;8.10;;;;;;;14.11;82.47;98695.92;111495;1213;22473;-78
2021/09/14 05:53:57;;;;;;;17.90;8.00;;;;;;;14.15;82.19;98695.74;111596;1212;22453;-78
2021/09/14 05:56:30;;;;;;;12.80;7.60;;;;;;;14.19;82.22;98690.34;111768;1215;22458;-78
2021/09/14 05:59:02;;;;;;;10.60;7.00;;;;;;;14.28;82.37;98691.06;112152;1206;22476;-78
2021/09/14 06:01:29;;;;;;;13.00;7.40;;;;;;;14.37;82.14;98691.61;112432;1213;22977;-79
2021/09/14 06:03:57;;;;;;;22.40;8.80;;;;;;;14.41;82.26;98689.56;112016;1214;22860;-79
2021/09/14 06:06:24;;;;;;;14.60;9.10;;;;;;;14.47;82.50;98687.02;111724;1214;24057;-78
2021/09/14 06:08:51;;;;;;;12.20;7.90;;;;;;;14.55;82.38;98693.33;111907;1213;22491;-78
2021/09/14 06:11:32;;;;;;;13.80;8.50;;;;;;;14.64;82.45;98696.73;111917;1212;23066;-78
2021/09/14 06:14:00;;;;;;;17.70;9.00;;;;;;;14.72;82.30;98696.58;111784;1215;22478;-78
2021/09/14 06:16:27;;;;;;;14.60;9.20;;;;;;;14.82;82.36;98699.31;112010;1212;22453;-78
2021/09/14 06:18:54;;;;;;;17.70;9.30;;;;;;;14.90;82.50;98694.95;111992;1212;25133;-78
2021/09/14 06:21:22;;;;;;;13.60;9.40;;;;;;;15.02;82.68;98696.15;112098;1212;22491;-78
2021/09/14 06:23:49;;;;;;;15.50;8.10;;;;;;;15.12;82.38;98702.99;111838;1213;24100;-78
2021/09/14 06:26:17;;;;;;;20.90;8.70;;;;;;;15.14;81.69;98700.05;111924;1214;22473;-78
2021/09/14 06:28:45;;;;;;;13.90;8.20;;;;;;;15.12;81.79;98699.66;111999;1212;22503;-78
2021/09/14 06:31:13;;;;;;;13.30;9.30;;;;;;;15.13;82.10;98696.86;111959;1212;22586;-78
2021/09/14 06:33:54;;;;;;;18.00;9.40;;;;;;;15.26;82.44;98695.25;111895;1220;24199;-78
2021/09/14 06:36:22;;;;;;;15.80;10.00;;;;;;;15.38;82.52;98694.47;111884;1212;22481;-78
2021/09/14 06:39:03;;;;;;;11.70;8.10;;;;;;;15.52;82.39;98689.98;111965;1214;25030;-78
2021/09/14 06:41:30;;;;;;;14.90;8.20;;;;;;;15.66;82.27;98696.00;111827;1212;25046;-78
2021/09/14 06:44:05;;;;;;;21.90;10.10;;;;;;;15.76;81.98;98694.05;111944;1212;24089;-78
2021/09/14 06:47:13;;;;;;;15.30;10.30;;;;;;;15.84;81.58;98695.11;112108;1212;23606;-78
2021/09/14 06:49:54;;;;;;;21.80;9.10;;;;;;;15.94;81.29;98691.16;111737;1213;22463;-78
2021/09/14 06:52:20;;;;;;;16.80;8.80;;;;;;;16.04;81.31;98693.86;111940;1219;22736;-78
2021/09/14 06:54:47;;;;;;;13.90;8.70;;;;;;;16.15;80.82;98692.53;112278;1211;23039;-78
2021/09/14 06:57:14;;;;;;;19.10;10.50;;;;;;;16.27;80.76;98693.13;112052;1212;22571;-78
2021/09/14 06:59:41;;;;;;;19.00;9.80;;;;;;;16.36;80.30;98693.66;111691;1215;22546;-78
2021/09/14 07:02:22;;;;;;;18.60;10.20;;;;;;;16.41;79.97;98689.80;111898;1212;22521;-78
2021/09/14 07:04:49;;;;;;;16.80;10.30;;;;;;;16.48;79.94;98697.21;111582;1215;23617;-78
2021/09/14 07:07:16;;;;;;;16.90;10.20;;;;;;;16.56;79.78;98692.36;111683;1212;25181;-78
2021/09/14 07:09:43;;;;;;;17.70;9.50;;;;;;;16.66;79.64;98695.14;111986;1206;25081;-78
2021/09/14 07:12:10;;;;;;;21.30;9.90;;;;;;;16.76;79.59;98691.26;111823;1207;22467;-78
2021/09/14 07:14:51;;;;;;;22.60;9.80;;;;;;;16.90;79.36;98695.53;111881;1219;25094;-78
2021/09/14 07:17:18;;;;;;;29.40;10.40;;;;;;;17.01;79.19;98693.69;111991;1212;22458;-78
2021/09/14 07:19:45;;;;;;;22.30;11.60;;;;;;;17.10;78.52;98689.45;112012;1212;22803;-78
2021/09/14 07:22:12;;;;;;;28.70;10.80;;;;;;;17.19;77.70;98692.22;111961;1211;22454;-78
2021/09/14 07:24:39;;;;;;;39.30;12.40;;;;;;;17.27;77.37;98693.23;111909;1211;22466;-78
2021/09/14 07:27:06;;;;;;;43.00;10.70;;;;;;;17.32;76.79;98694.25;111817;1211;22485;-78
2021/09/14 07:29:35;;;;;;;25.50;9.90;;;;;;;17.40;76.43;98696.30;111943;1212;25159;-78
2021/09/14 07:32:16;;;;;;;17.00;9.20;;;;;;;17.49;75.06;98695.80;111789;1213;25160;-77
2021/09/14 07:34:44;;;;;;;25.50;10.20;;;;;;;17.57;74.16;98698.73;112011;1211;23940;-78
2021/09/14 07:37:10;;;;;;;19.70;10.50;;;;;;;17.69;74.25;98703.49;111882;1219;25081;-78
2021/09/14 07:39:37;;;;;;;25.10;9.20;;;;;;;17.78;73.52;98703.77;111896;1212;22451;-78
2021/09/14 07:42:04;;;;;;;12.70;8.50;;;;;;;17.86;72.22;98705.48;111952;1212;22549;-78
2021/09/14 07:44:31;;;;;;;15.30;8.70;;;;;;;17.95;72.08;98702.13;112264;1212;24144;-77
2021/09/14 07:46:58;;;;;;;19.10;9.40;;;;;;;18.05;72.05;98700.89;111866;1212;25149;-77
2021/09/14 07:49:39;;;;;;;23.10;9.30;;;;;;;18.19;71.63;98703.92;111839;1212;22456;-78
2021/09/14 07:52:06;;;;;;;22.50;9.20;;;;;;;18.30;71.41;98706.45;111718;1215;24048;-78
2021/09/14 07:54:33;;;;;;;19.80;9.60;;;;;;;18.44;71.17;98711.23;112026;1212;24057;-78
2021/09/14 07:57:00;;;;;;;17.60;8.90;;;;;;;18.59;70.48;98704.69;111819;1212;25190;-77
2021/09/14 07:59:41;;;;;;;14.20;8.50;;;;;;;18.76;69.68;98705.23;111843;1212;22470;-77
2021/09/14 08:02:08;;;;;;;21.20;8.50;;;;;;;18.90;69.85;98707.63;111827;1213;24118;-77
2021/09/14 08:04:50;;;;;;;21.10;8.80;;;;;;;19.09;69.24;98709.30;112104;1211;22575;-78
2021/09/14 08:07:17;;;;;;;15.40;8.70;;;;;;;19.22;68.59;98712.39;112038;1219;22488;-78
2021/09/14 08:09:44;;;;;;;17.30;9.80;;;;;;;19.36;68.63;98711.75;111971;1212;23105;-78
2021/09/14 08:12:11;;;;;;;20.00;10.20;;;;;;;19.51;67.96;98705.48;111882;1219;22579;-77
2021/09/14 08:14:38;;;;;;;17.60;9.50;;;;;;;19.68;67.25;98708.22;111956;1212;23424;-77
2021/09/14 08:17:19;;;;;;;21.70;9.20;;;;;;;19.86;66.71;98706.83;111796;1212;22485;-76
2021/09/14 08:19:48;;;;;;;15.70;8.80;;;;;;;19.94;65.75;98709.20;111978;1212;24033;-78
2021/09/14 08:22:29;;;;;;;15.40;9.00;;;;;;;20.10;65.24;98710.30;112011;1212;22457;-78
2021/09/14 08:24:56;;;;;;;12.60;9.30;;;;;;;20.24;64.90;98711.96;111952;1212;22462;-78
2021/09/14 08:27:23;;;;;;;13.80;8.30;;;;;;;20.34;64.38;98710.51;112400;1211;25197;-78
2021/09/14 08:29:50;;;;;;;11.70;7.60;;;;;;;20.46;64.21;98713.23;111851;1212;22796;-79
2021/09/14 08:32:17;;;;;;;12.00;7.80;;;;;;;20.54;64.28;98713.26;112082;1212;22562;-79
2021/09/14 08:34:44;;;;;;;12.90;7.70;;;;;;;20.62;64.17;98713.96;111952;1212;25170;-79
2021/09/14 08:37:11;;;;;;;11.90;6.60;;;;;;;20.75;63.48;98711.02;111934;1212;25095;-79
2021/09/14 08:39:38;;;;;;;14.20;7.80;;;;;;;20.84;62.50;98711.02;111938;1212;23803;-78
2021/09/14 08:42:05;;;;;;;10.30;7.80;;;;;;;20.89;61.72;98705.60;112026;1212;22489;-79
2021/09/14 08:44:37;;;;;;;13.70;8.00;;;;;;;20.89;61.19;98706.38;111856;1212;22454;-78
2021/09/14 08:47:06;;;;;;;15.70;7.50;;;;;;;20.93;61.29;98710.95;111855;1211;22481;-78
2021/09/14 08:49:34;;;;;;;14.20;6.90;;;;;;;20.96;61.03;98702.25;112098;1219;24054;-79
2021/09/14 08:52:15;;;;;;;14.10;7.30;;;;;;;20.99;60.68;98702.59;111937;1212;24167;-78
2021/09/14 08:54:42;;;;;;;13.20;7.50;;;;;;;21.03;60.03;98705.11;111872;1219;22486;-79
2021/09/14 08:57:09;;;;;;;9.30;6.10;;;;;;;21.14;59.85;98709.43;112022;1212;23800;-79
2021/09/14 08:59:55;;;;;;;11.60;6.90;;;;;;;21.16;58.95;98710.38;112034;1219;22539;-78
2021/09/14 09:02:22;;;;;;;12.50;6.80;;;;;;;21.09;58.76;98708.54;112062;1212;22479;-78
2021/09/14 09:05:08;;;;;;;14.60;7.40;;;;;;;21.14;59.18;98714.02;112048;1213;22458;-80
2021/09/14 09:07:49;;;;;;;12.80;7.40;;;;;;;21.15;58.42;98712.77;111886;1212;22471;-78
2021/09/14 09:10:30;;;;;;;12.80;7.70;;;;;;;21.15;58.39;98715.28;111945;1212;24103;-77
2021/09/14 09:13:00;;;;;;;10.10;6.40;;;;;;;21.22;58.36;98715.00;112027;1212;22951;-77
2021/09/14 09:15:41;;;;;;;14.10;6.60;;;;;;;21.26;58.18;98716.77;111911;1212;22482;-76
2021/09/14 09:18:21;;;;;;;11.30;6.40;;;;;;;21.14;57.25;98712.18;111940;1212;25118;-76
2021/09/14 09:20:49;;;;;;;13.90;5.90;;;;;;;21.11;59.36;98716.73;112256;1212;22519;-76
2021/09/14 09:23:24;;;;;;;10.50;6.40;;;;;;;21.08;59.26;98712.87;111932;1212;22482;-77
2021/09/14 09:25:51;;;;;;;10.50;5.90;;;;;;;21.04;59.82;98712.49;111970;1213;24056;-76
2021/09/14 09:28:23;;;;;;;10.00;6.20;;;;;;;21.02;59.94;98713.31;111993;1212;22776;-77
2021/09/14 09:30:59;;;;;;;8.90;5.90;;;;;;;21.00;60.00;98714.95;112090;1213;22441;-77
2021/09/14 09:33:31;;;;;;;11.40;6.80;;;;;;;20.99;60.07;98717.38;112084;1212;22437;-77
2021/09/14 09:36:00;;;;;;;10.70;6.50;;;;;;;21.04;59.81;98714.16;111886;1211;22466;-77
2021/09/14 09:38:28;;;;;;;11.00;6.70;;;;;;;21.19;58.72;98718.94;111952;1212;25090;-77
2021/09/14 09:40:57;;;;;;;10.60;7.10;;;;;;;21.34;58.26;98719.14;112121;1213;22519;-77
2021/09/14 09:43:31;;;;;;;8.30;5.80;;;;;;;21.52;58.00;98717.63;111631;1215;22482;-77
2021/09/14 09:46:07;;;;;;;11.60;6.40;;;;;;;21.66;57.15;98714.91;111728;1213;24067;-77
2021/09/14 09:48:36;;;;;;;13.10;6.40;;;;;;;21.78;57.62;98713.81;111913;1212;22470;-77
2021/09/14 09:51:04;;;;;;;10.00;5.90;;;;;;;21.94;57.76;98710.95;111849;1214;25293;-77
2021/09/14 09:53:33;;;;;;;7.00;6.10;;;;;;;22.08;57.61;98710.11;111621;1221;22479;-77
2021/09/14 09:56:05;;;;;;;7.60;5.80;;;;;;;22.26;57.00;98705.07;111635;1215;24066;-77
2021/09/14 09:58:32;;;;;;;7.80;5.30;;;;;;;22.50;57.74;98709.14;112032;1214;22461;-76
2021/09/14 10:01:21;;;;;;;9.40;5.90;;;;;;;22.73;55.98;98706.98;112001;1213;25046;-77
2021/09/14 10:03:52;;;;;;;11.70;6.70;;;;;;;22.89;53.22;98704.29;112147;1212;22966;-77
2021/09/14 10:06:38;;;;;;;10.60;5.70;;;;;;;23.10;53.70;98700.80;112083;1213;25131;-77
2021/09/14 10:09:20;;;;;;;12.30;8.00;;;;;;;23.29;52.30;98698.02;111811;1215;22473;-77
2021/09/14 10:11:55;;;;;;;8.00;5.90;;;;;;;23.41;51.61;98693.03;111636;1215;22533;-77
2021/09/14 10:14:23;;;;;;;10.30;7.50;;;;;;;23.37;50.63;98691.55;111879;1213;22563;-77
2021/09/14 10:16:50;;;;;;;10.10;7.70;;;;;;;23.34;51.53;98694.34;112305;1206;24053;-77
2021/09/14 10:19:31;;;;;;;9.40;6.60;;;;;;;23.28;52.46;98696.44;111617;1219;22485;-77
2021/09/14 10:22:04;;;;;;;7.70;6.80;;;;;;;23.19;51.50;98696.80;111663;1215;25145;-77
2021/09/14 10:24:52;;;;;;;9.70;7.50;;;;;;;23.11;51.50;98696.00;111965;1215;23364;-77
2021/09/14 10:27:19;;;;;;;12.80;7.90;;;;;;;23.05;51.91;98694.38;111955;1212;24100;-76
2021/09/14 10:29:57;;;;;;;10.60;7.50;;;;;;;22.97;52.07;98698.09;111916;1213;22489;-77
2021/09/14 10:32:24;;;;;;;8.80;7.10;;;;;;;22.92;52.35;98697.93;111938;1214;22453;-77
2021/09/14 10:35:07;;;;;;;7.70;5.90;;;;;;;22.86;52.96;98696.18;111839;1213;22572;-77
2021/09/14 10:37:51;;;;;;;8.30;6.20;;;;;;;22.70;53.24;98697.93;112041;1214;23933;-76
2021/09/14 10:40:22;;;;;;;8.80;6.30;;;;;;;22.58;54.24;98693.09;111911;1209;24061;-77
2021/09/14 10:42:49;;;;;;;7.20;5.90;;;;;;;22.55;54.39;98697.45;111823;1215;22514;-76
2021/09/14 10:45:40;;;;;;;11.10;6.80;;;;;;;22.53;55.00;98694.85;111833;1212;22561;-77
2021/09/14 10:48:29;;;;;;;9.10;6.50;;;;;;;22.53;54.80;98696.06;111698;1213;23215;-77
2021/09/14 10:51:12;;;;;;;13.10;6.50;;;;;;;22.54;54.58;98700.15;111763;1213;25084;-77
2021/09/14 10:53:40;;;;;;;8.50;6.70;;;;;;;22.45;53.60;98699.61;111854;1213;22473;-77
2021/09/14 10:56:10;;;;;;;8.60;5.50;;;;;;;22.40;54.34;98700.46;111969;1216;24855;-77
2021/09/14 10:58:43;;;;;;;5.30;4.30;;;;;;;22.52;53.43;98700.04;112083;1214;22479;-76
2021/09/14 11:01:24;;;;;;;5.60;5.10;;;;;;;22.43;53.18;98699.27;112216;1213;22888;-77
2021/09/14 11:04:00;;;;;;;10.40;5.10;;;;;;;22.35;53.38;98702.02;112098;1212;22459;-77
2021/09/14 11:06:47;;;;;;;8.20;4.90;;;;;;;22.23;53.58;98705.91;112049;1211;23596;-77
2021/09/14 11:09:17;;;;;;;5.40;4.70;;;;;;;22.17;54.27;98703.00;111791;1215;23144;-77
2021/09/14 11:11:55;;;;;;;8.40;5.50;;;;;;;22.12;54.55;98700.19;111833;1211;25082;-77
2021/09/14 11:14:33;;;;;;;6.80;5.10;;;;;;;22.07;54.58;98702.30;111903;1209;23412;-77
2021/09/14 11:17:01;;;;;;;7.30;5.60;;;;;;;22.10;55.40;98699.02;112005;1218;22472;-77
2021/09/14 11:19:29;;;;;;;9.50;5.00;;;;;;;22.23;55.26;98691.55;111956;1219;22583;-77
2021/09/14 11:21:56;;;;;;;6.60;5.00;;;;;;;22.51;55.25;98693.57;111955;1216;24049;-77
2021/09/14 11:24:23;;;;;;;6.30;4.80;;;;;;;22.83;54.72;98690.67;111871;1215;25148;-77
2021/09/14 11:27:04;;;;;;;7.20;5.00;;;;;;;23.10;54.59;98687.86;111746;1213;22489;-77
2021/09/14 11:29:31;;;;;;;9.00;5.50;;;;;;;23.24;54.08;98688.11;112015;1219;25275;-77
2021/09/14 11:32:00;;;;;;;8.30;5.80;;;;;;;23.25;53.18;98687.02;111888;1214;22603;-77
2021/09/14 11:34:29;;;;;;;7.00;5.10;;;;;;;23.16;51.77;98685.08;112266;1211;22508;-77
2021/09/14 11:36:56;;;;;;;7.50;5.00;;;;;;;23.15;52.77;98686.54;111819;1212;22481;-77
2021/09/14 11:39:34;;;;;;;10.40;6.50;;;;;;;23.31;52.47;98681.41;111813;1211;24103;-77
2021/09/14 11:42:01;;;;;;;7.60;6.50;;;;;;;23.40;52.15;98680.64;111893;1212;22707;-77
2021/09/14 11:44:28;;;;;;;7.50;6.10;;;;;;;23.38;51.91;98678.13;111968;1211;25087;-76
2021/09/14 11:47:07;;;;;;;7.60;5.70;;;;;;;23.35;52.14;98678.45;111835;1219;22675;-76
2021/09/14 11:49:34;;;;;;;9.80;5.90;;;;;;;23.30;52.55;98681.77;111914;1216;22457;-77
2021/09/14 11:52:17;;;;;;;9.20;6.30;;;;;;;23.20;52.76;98680.02;112044;1211;24221;-77
2021/09/14 11:54:44;;;;;;;7.70;6.00;;;;;;;23.12;53.05;98680.52;112049;1216;22572;-77
2021/09/14 11:57:17;;;;;;;8.90;6.30;;;;;;;23.03;52.19;98676.33;112281;1219;24104;-77
2021/09/14 11:59:44;;;;;;;8.60;6.80;;;;;;;22.94;52.93;98679.55;112058;1211;22459;-77
2021/09/14 12:02:11;;;;;;;10.70;6.70;;;;;;;22.92;53.54;98677.65;111613;1214;25169;-77
2021/09/14 12:04:38;;;;;;;8.10;6.20;;;;;;;23.05;53.56;98675.59;111805;1215;22546;-77
2021/09/14 12:07:05;;;;;;;9.70;6.00;;;;;;;23.19;53.16;98671.80;111702;1219;24256;-77
2021/09/14 12:09:32;;;;;;;7.70;6.20;;;;;;;23.41;52.92;98675.77;111935;1216;24089;-77
2021/09/14 12:12:13;;;;;;;9.30;6.40;;;;;;;23.61;52.21;98670.69;111852;1216;22480;-77
2021/09/14 12:14:56;;;;;;;10.50;7.10;;;;;;;23.88;51.60;98672.02;111886;1216;22468;-77
2021/09/14 12:17:31;;;;;;;8.40;7.00;;;;;;;24.18;50.57;98669.44;112095;1213;22575;-77
2021/09/14 12:19:58;;;;;;;11.10;7.00;;;;;;;24.42;49.59;98671.29;112014;1214;25208;-77
2021/09/14 12:22:25;;;;;;;10.50;7.20;;;;;;;24.59;49.43;98669.00;111809;1212;22445;-77
2021/09/14 12:24:52;;;;;;;8.70;6.80;;;;;;;24.76;48.82;98670.05;111783;1219;25278;-77
2021/09/14 12:27:18;;;;;;;8.20;6.40;;;;;;;24.88;48.17;98667.44;111831;1213;22494;-77
2021/09/14 12:29:45;;;;;;;9.50;6.60;;;;;;;24.88;46.47;98667.52;111916;1214;23296;-77
2021/09/14 12:32:12;;;;;;;8.60;7.60;;;;;;;24.84;45.99;98665.10;112119;1211;22485;-77